sensor_id;sensor_type;location;lat;lon;timestamp;P1;durP1;ratioP1;P2;durP2;ratioP2
15624;SDS011;7912;51.376;6.126;2023-02-08T00:01:23;15.40;;;10.93;;
15624;SDS011;7912;51.376;6.126;2023-02-08T00:03:51;15.17;;;11.07;;
15624;SDS011;7912;51.376;6.126;2023-02-08T00:06:19;14.57;;;11.37;;
15624;SDS011;7912;51.376;6.126;2023-02-08T00:08:46;14.43;;;10.70;;
15624;SDS011;7912;51.376;6.126;2023-02-08T00:11:14;14.43;;;10.37;;
15624;SDS011;7912;51.376;6.126;2023-02-08T00:13:41;13.87;;;10.70;;
15624;SDS011;7912;51.376;6.126;2023-02-08T00:16:08;13.40;;;10.03;;
15624;SDS011;7912;51.376;6.126;2023-02-08T00:18:37;13.10;;;9.97;;
15624;SDS011;7912;51.376;6.126;2023-02-08T00:21:06;13.63;;;9.93;;
15624;SDS011;7912;51.376;6.126;2023-02-08T00:23:38;12.47;;;10.10;;
15624;SDS011;7912;51.376;6.126;2023-02-08T00:26:06;11.20;;;9.90;;
15624;SDS011;7912;51.376;6.126;2023-02-08T00:28:33;13.27;;;9.77;;
15624;SDS011;7912;51.376;6.126;2023-02-08T00:31:01;13.50;;;9.17;;
15624;SDS011;7912;51.376;6.126;2023-02-08T00:33:29;11.37;;;8.77;;
15624;SDS011;7912;51.376;6.126;2023-02-08T00:35:57;13.13;;;9.70;;
15624;SDS011;7912;51.376;6.126;2023-02-08T00:38:29;11.10;;;9.47;;
15624;SDS011;7912;51.376;6.126;2023-02-08T00:40:57;12.10;;;9.70;;
15624;SDS011;7912;51.376;6.126;2023-02-08T00:43:24;12.93;;;9.80;;
15624;SDS011;7912;51.376;6.126;2023-02-08T00:45:52;11.30;;;9.60;;
15624;SDS011;7912;51.376;6.126;2023-02-08T00:48:21;12.90;;;9.13;;
15624;SDS011;7912;51.376;6.126;2023-02-08T00:53:47;11.83;;;9.80;;
15624;SDS011;7912;51.376;6.126;2023-02-08T00:56:14;12.53;;;9.37;;
15624;SDS011;7912;51.376;6.126;2023-02-08T00:58:42;13.50;;;9.30;;
15624;SDS011;7912;51.376;6.126;2023-02-08T01:01:10;12.47;;;9.63;;
15624;SDS011;7912;51.376;6.126;2023-02-08T01:03:38;10.73;;;9.13;;
15624;SDS011;7912;51.376;6.126;2023-02-08T01:06:09;13.07;;;9.47;;
15624;SDS011;7912;51.376;6.126;2023-02-08T01:08:41;12.33;;;9.67;;
15624;SDS011;7912;51.376;6.126;2023-02-08T01:11:10;11.67;;;9.70;;
15624;SDS011;7912;51.376;6.126;2023-02-08T01:13:41;13.27;;;9.47;;
15624;SDS011;7912;51.376;6.126;2023-02-08T01:18:42;13.67;;;9.93;;
15624;SDS011;7912;51.376;6.126;2023-02-08T01:21:12;12.53;;;9.60;;
15624;SDS011;7912;51.376;6.126;2023-02-08T01:23:43;11.93;;;10.20;;
15624;SDS011;7912;51.376;6.126;2023-02-08T01:26:11;12.43;;;9.57;;
15624;SDS011;7912;51.376;6.126;2023-02-08T01:28:41;13.77;;;10.13;;
15624;SDS011;7912;51.376;6.126;2023-02-08T01:31:10;12.70;;;9.97;;
15624;SDS011;7912;51.376;6.126;2023-02-08T01:33:50;15.30;;;10.13;;
15624;SDS011;7912;51.376;6.126;2023-02-08T01:36:18;12.80;;;9.47;;
15624;SDS011;7912;51.376;6.126;2023-02-08T01:38:45;12.57;;;10.10;;
15624;SDS011;7912;51.376;6.126;2023-02-08T01:41:19;12.43;;;9.77;;
15624;SDS011;7912;51.376;6.126;2023-02-08T01:46:42;10.77;;;8.80;;
15624;SDS011;7912;51.376;6.126;2023-02-08T01:51:52;12.07;;;9.80;;
15624;SDS011;7912;51.376;6.126;2023-02-08T01:54:25;14.17;;;10.17;;
15624;SDS011;7912;51.376;6.126;2023-02-08T01:56:57;12.80;;;9.97;;
15624;SDS011;7912;51.376;6.126;2023-02-08T01:59:28;13.07;;;10.17;;
15624;SDS011;7912;51.376;6.126;2023-02-08T02:02:09;13.67;;;10.30;;
15624;SDS011;7912;51.376;6.126;2023-02-08T02:04:41;12.87;;;10.13;;
15624;SDS011;7912;51.376;6.126;2023-02-08T02:07:09;13.13;;;10.93;;
15624;SDS011;7912;51.376;6.126;2023-02-08T02:09:51;12.80;;;10.43;;
15624;SDS011;7912;51.376;6.126;2023-02-08T02:12:34;13.80;;;11.00;;
15624;SDS011;7912;51.376;6.126;2023-02-08T02:15:04;14.70;;;10.97;;
15624;SDS011;7912;51.376;6.126;2023-02-08T02:17:33;15.07;;;10.90;;
15624;SDS011;7912;51.376;6.126;2023-02-08T02:20:08;13.17;;;10.47;;
15624;SDS011;7912;51.376;6.126;2023-02-08T02:34:28;12.77;;;10.23;;
15624;SDS011;7912;51.376;6.126;2023-02-08T02:37:15;10.77;;;9.33;;
15624;SDS011;7912;51.376;6.126;2023-02-08T02:43:36;13.50;;;10.20;;
15624;SDS011;7912;51.376;6.126;2023-02-08T02:46:23;13.03;;;9.40;;
15624;SDS011;7912;51.376;6.126;2023-02-08T02:49:22;13.13;;;10.43;;
15624;SDS011;7912;51.376;6.126;2023-02-08T02:54:43;12.73;;;10.03;;
15624;SDS011;7912;51.376;6.126;2023-02-08T02:57:18;12.70;;;10.13;;
15624;SDS011;7912;51.376;6.126;2023-02-08T02:59:53;12.50;;;9.43;;
15624;SDS011;7912;51.376;6.126;2023-02-08T03:02:20;11.77;;;9.00;;
15624;SDS011;7912;51.376;6.126;2023-02-08T03:04:49;11.83;;;9.37;;
15624;SDS011;7912;51.376;6.126;2023-02-08T03:25:20;11.50;;;10.13;;
15624;SDS011;7912;51.376;6.126;2023-02-08T03:31:13;14.07;;;10.43;;
15624;SDS011;7912;51.376;6.126;2023-02-08T03:33:44;13.00;;;10.83;;
15624;SDS011;7912;51.376;6.126;2023-02-08T03:36:20;11.10;;;8.63;;
15624;SDS011;7912;51.376;6.126;2023-02-08T03:38:59;12.43;;;9.90;;
15624;SDS011;7912;51.376;6.126;2023-02-08T03:41:33;13.43;;;10.07;;
15624;SDS011;7912;51.376;6.126;2023-02-08T03:44:10;15.37;;;11.13;;
15624;SDS011;7912;51.376;6.126;2023-02-08T03:46:51;12.33;;;9.77;;
15624;SDS011;7912;51.376;6.126;2023-02-08T03:49:27;13.27;;;10.53;;
15624;SDS011;7912;51.376;6.126;2023-02-08T03:52:01;14.57;;;10.87;;
15624;SDS011;7912;51.376;6.126;2023-02-08T03:54:34;13.47;;;10.13;;
15624;SDS011;7912;51.376;6.126;2023-02-08T03:57:14;13.03;;;10.27;;
15624;SDS011;7912;51.376;6.126;2023-02-08T03:59:52;15.60;;;9.87;;
15624;SDS011;7912;51.376;6.126;2023-02-08T04:02:43;14.57;;;10.97;;
15624;SDS011;7912;51.376;6.126;2023-02-08T04:05:41;12.97;;;9.50;;
15624;SDS011;7912;51.376;6.126;2023-02-08T04:08:09;16.30;;;11.07;;
15624;SDS011;7912;51.376;6.126;2023-02-08T04:10:36;13.37;;;9.90;;
15624;SDS011;7912;51.376;6.126;2023-02-08T04:13:04;12.83;;;9.73;;
15624;SDS011;7912;51.376;6.126;2023-02-08T04:15:31;13.47;;;9.63;;
15624;SDS011;7912;51.376;6.126;2023-02-08T04:17:58;13.23;;;9.87;;
15624;SDS011;7912;51.376;6.126;2023-02-08T04:20:26;14.37;;;10.17;;
15624;SDS011;7912;51.376;6.126;2023-02-08T04:22:53;15.00;;;10.00;;
15624;SDS011;7912;51.376;6.126;2023-02-08T04:25:20;12.70;;;9.43;;
15624;SDS011;7912;51.376;6.126;2023-02-08T04:27:48;13.47;;;10.17;;
15624;SDS011;7912;51.376;6.126;2023-02-08T04:30:15;13.07;;;9.90;;
15624;SDS011;7912;51.376;6.126;2023-02-08T04:32:43;13.40;;;10.37;;
15624;SDS011;7912;51.376;6.126;2023-02-08T04:35:10;10.77;;;8.77;;
15624;SDS011;7912;51.376;6.126;2023-02-08T04:37:37;16.13;;;11.17;;
15624;SDS011;7912;51.376;6.126;2023-02-08T04:40:05;12.63;;;9.90;;
15624;SDS011;7912;51.376;6.126;2023-02-08T04:42:32;14.07;;;10.10;;
15624;SDS011;7912;51.376;6.126;2023-02-08T04:45:00;12.40;;;9.57;;
15624;SDS011;7912;51.376;6.126;2023-02-08T04:47:27;10.20;;;8.27;;
15624;SDS011;7912;51.376;6.126;2023-02-08T04:49:54;12.27;;;9.17;;
15624;SDS011;7912;51.376;6.126;2023-02-08T04:52:22;13.13;;;10.03;;
15624;SDS011;7912;51.376;6.126;2023-02-08T04:54:49;15.33;;;10.30;;
15624;SDS011;7912;51.376;6.126;2023-02-08T04:57:16;14.63;;;10.73;;
15624;SDS011;7912;51.376;6.126;2023-02-08T04:59:44;14.13;;;10.13;;
15624;SDS011;7912;51.376;6.126;2023-02-08T05:02:11;11.77;;;9.40;;
15624;SDS011;7912;51.376;6.126;2023-02-08T05:04:38;14.53;;;10.10;;
15624;SDS011;7912;51.376;6.126;2023-02-08T05:07:05;12.60;;;9.17;;
15624;SDS011;7912;51.376;6.126;2023-02-08T05:09:33;10.33;;;8.47;;
15624;SDS011;7912;51.376;6.126;2023-02-08T05:12:00;14.27;;;9.80;;
15624;SDS011;7912;51.376;6.126;2023-02-08T05:14:27;14.20;;;10.10;;
15624;SDS011;7912;51.376;6.126;2023-02-08T05:16:54;13.10;;;8.93;;
15624;SDS011;7912;51.376;6.126;2023-02-08T05:19:22;13.07;;;9.70;;
15624;SDS011;7912;51.376;6.126;2023-02-08T05:21:49;12.67;;;9.03;;
15624;SDS011;7912;51.376;6.126;2023-02-08T05:24:16;13.93;;;10.10;;
15624;SDS011;7912;51.376;6.126;2023-02-08T05:26:43;13.30;;;9.43;;
15624;SDS011;7912;51.376;6.126;2023-02-08T05:29:11;12.37;;;9.40;;
15624;SDS011;7912;51.376;6.126;2023-02-08T05:31:38;11.97;;;9.00;;
15624;SDS011;7912;51.376;6.126;2023-02-08T05:34:05;14.50;;;9.73;;
15624;SDS011;7912;51.376;6.126;2023-02-08T05:36:33;12.87;;;9.67;;
15624;SDS011;7912;51.376;6.126;2023-02-08T05:39:00;12.33;;;9.77;;
15624;SDS011;7912;51.376;6.126;2023-02-08T05:41:27;13.00;;;9.77;;
15624;SDS011;7912;51.376;6.126;2023-02-08T05:43:54;11.53;;;9.40;;
15624;SDS011;7912;51.376;6.126;2023-02-08T05:46:22;14.00;;;10.30;;
15624;SDS011;7912;51.376;6.126;2023-02-08T05:48:49;12.03;;;9.50;;
15624;SDS011;7912;51.376;6.126;2023-02-08T05:51:16;12.77;;;10.27;;
15624;SDS011;7912;51.376;6.126;2023-02-08T05:53:44;13.37;;;10.23;;
15624;SDS011;7912;51.376;6.126;2023-02-08T05:56:11;14.30;;;10.40;;
15624;SDS011;7912;51.376;6.126;2023-02-08T05:58:38;12.03;;;9.80;;
15624;SDS011;7912;51.376;6.126;2023-02-08T06:01:06;14.33;;;9.83;;
15624;SDS011;7912;51.376;6.126;2023-02-08T06:03:39;13.30;;;9.87;;
15624;SDS011;7912;51.376;6.126;2023-02-08T06:06:06;12.20;;;9.30;;
15624;SDS011;7912;51.376;6.126;2023-02-08T06:08:36;13.83;;;9.73;;
15624;SDS011;7912;51.376;6.126;2023-02-08T06:11:04;13.40;;;9.73;;
15624;SDS011;7912;51.376;6.126;2023-02-08T06:13:32;16.37;;;10.00;;
15624;SDS011;7912;51.376;6.126;2023-02-08T06:16:00;14.20;;;10.03;;
15624;SDS011;7912;51.376;6.126;2023-02-08T06:18:28;12.43;;;9.80;;
15624;SDS011;7912;51.376;6.126;2023-02-08T06:20:55;13.03;;;9.70;;
15624;SDS011;7912;51.376;6.126;2023-02-08T06:23:22;14.77;;;10.17;;
15624;SDS011;7912;51.376;6.126;2023-02-08T06:25:50;15.73;;;10.97;;
15624;SDS011;7912;51.376;6.126;2023-02-08T06:28:18;16.83;;;11.57;;
15624;SDS011;7912;51.376;6.126;2023-02-08T06:30:47;15.97;;;11.40;;
15624;SDS011;7912;51.376;6.126;2023-02-08T06:33:18;17.13;;;11.57;;
15624;SDS011;7912;51.376;6.126;2023-02-08T06:35:46;16.87;;;11.57;;
15624;SDS011;7912;51.376;6.126;2023-02-08T06:38:16;13.33;;;9.77;;
15624;SDS011;7912;51.376;6.126;2023-02-08T06:40:45;13.87;;;10.40;;
15624;SDS011;7912;51.376;6.126;2023-02-08T06:43:13;16.87;;;12.23;;
15624;SDS011;7912;51.376;6.126;2023-02-08T06:45:45;14.80;;;10.97;;
15624;SDS011;7912;51.376;6.126;2023-02-08T06:48:13;15.83;;;11.00;;
15624;SDS011;7912;51.376;6.126;2023-02-08T06:50:41;14.23;;;10.20;;
15624;SDS011;7912;51.376;6.126;2023-02-08T06:53:09;12.53;;;10.27;;
15624;SDS011;7912;51.376;6.126;2023-02-08T06:55:36;14.10;;;10.27;;
15624;SDS011;7912;51.376;6.126;2023-02-08T06:58:04;16.10;;;11.37;;
15624;SDS011;7912;51.376;6.126;2023-02-08T07:00:31;12.50;;;10.37;;
15624;SDS011;7912;51.376;6.126;2023-02-08T07:02:58;14.23;;;10.70;;
15624;SDS011;7912;51.376;6.126;2023-02-08T07:05:26;16.23;;;10.87;;
15624;SDS011;7912;51.376;6.126;2023-02-08T07:07:54;14.70;;;10.60;;
15624;SDS011;7912;51.376;6.126;2023-02-08T07:10:21;14.83;;;11.00;;
15624;SDS011;7912;51.376;6.126;2023-02-08T07:12:49;14.47;;;11.13;;
15624;SDS011;7912;51.376;6.126;2023-02-08T07:15:16;14.20;;;10.60;;
15624;SDS011;7912;51.376;6.126;2023-02-08T07:17:43;14.93;;;10.97;;
15624;SDS011;7912;51.376;6.126;2023-02-08T07:20:10;14.70;;;10.63;;
15624;SDS011;7912;51.376;6.126;2023-02-08T07:22:38;14.50;;;11.00;;
15624;SDS011;7912;51.376;6.126;2023-02-08T07:25:07;15.20;;;11.17;;
15624;SDS011;7912;51.376;6.126;2023-02-08T07:27:35;13.60;;;10.23;;
15624;SDS011;7912;51.376;6.126;2023-02-08T07:30:02;14.13;;;10.90;;
15624;SDS011;7912;51.376;6.126;2023-02-08T07:32:31;14.90;;;10.77;;
15624;SDS011;7912;51.376;6.126;2023-02-08T07:35:00;14.30;;;10.47;;
15624;SDS011;7912;51.376;6.126;2023-02-08T07:40:16;14.97;;;10.77;;
15624;SDS011;7912;51.376;6.126;2023-02-08T07:42:43;13.77;;;10.73;;
15624;SDS011;7912;51.376;6.126;2023-02-08T07:45:11;12.90;;;10.50;;
15624;SDS011;7912;51.376;6.126;2023-02-08T07:47:38;14.40;;;10.57;;
15624;SDS011;7912;51.376;6.126;2023-02-08T07:50:05;14.40;;;10.33;;
15624;SDS011;7912;51.376;6.126;2023-02-08T07:52:33;12.00;;;10.20;;
15624;SDS011;7912;51.376;6.126;2023-02-08T07:55:00;13.03;;;9.97;;
15624;SDS011;7912;51.376;6.126;2023-02-08T07:57:27;12.67;;;9.33;;
15624;SDS011;7912;51.376;6.126;2023-02-08T07:59:54;13.33;;;9.90;;
15624;SDS011;7912;51.376;6.126;2023-02-08T08:02:22;15.00;;;9.77;;
15624;SDS011;7912;51.376;6.126;2023-02-08T08:04:49;13.13;;;9.90;;
15624;SDS011;7912;51.376;6.126;2023-02-08T08:07:19;12.83;;;10.10;;
15624;SDS011;7912;51.376;6.126;2023-02-08T08:09:46;13.33;;;10.40;;
15624;SDS011;7912;51.376;6.126;2023-02-08T08:12:13;13.37;;;10.27;;
15624;SDS011;7912;51.376;6.126;2023-02-08T08:14:40;13.37;;;10.40;;
15624;SDS011;7912;51.376;6.126;2023-02-08T08:17:08;12.97;;;10.30;;
15624;SDS011;7912;51.376;6.126;2023-02-08T08:19:35;12.50;;;10.37;;
15624;SDS011;7912;51.376;6.126;2023-02-08T08:22:02;13.60;;;10.00;;
15624;SDS011;7912;51.376;6.126;2023-02-08T08:24:30;12.83;;;9.93;;
15624;SDS011;7912;51.376;6.126;2023-02-08T08:27:01;13.80;;;10.17;;
15624;SDS011;7912;51.376;6.126;2023-02-08T08:29:31;14.33;;;9.80;;
15624;SDS011;7912;51.376;6.126;2023-02-08T08:32:00;12.27;;;10.17;;
15624;SDS011;7912;51.376;6.126;2023-02-08T08:34:28;14.83;;;10.53;;
15624;SDS011;7912;51.376;6.126;2023-02-08T08:36:57;13.63;;;10.43;;
15624;SDS011;7912;51.376;6.126;2023-02-08T08:39:26;12.63;;;9.77;;
15624;SDS011;7912;51.376;6.126;2023-02-08T08:41:57;13.03;;;10.00;;
15624;SDS011;7912;51.376;6.126;2023-02-08T08:44:25;13.27;;;10.57;;
15624;SDS011;7912;51.376;6.126;2023-02-08T08:46:53;13.27;;;10.83;;
15624;SDS011;7912;51.376;6.126;2023-02-08T08:49:22;12.97;;;9.97;;
15624;SDS011;7912;51.376;6.126;2023-02-08T08:51:51;12.90;;;9.97;;
15624;SDS011;7912;51.376;6.126;2023-02-08T08:54:19;13.13;;;10.37;;
15624;SDS011;7912;51.376;6.126;2023-02-08T08:56:47;13.10;;;10.43;;
15624;SDS011;7912;51.376;6.126;2023-02-08T08:59:14;13.97;;;10.43;;
15624;SDS011;7912;51.376;6.126;2023-02-08T09:01:42;13.60;;;10.43;;
15624;SDS011;7912;51.376;6.126;2023-02-08T09:04:09;15.13;;;10.97;;
15624;SDS011;7912;51.376;6.126;2023-02-08T09:06:37;14.73;;;11.03;;
15624;SDS011;7912;51.376;6.126;2023-02-08T09:09:04;13.80;;;10.00;;
15624;SDS011;7912;51.376;6.126;2023-02-08T09:11:33;13.23;;;10.27;;
15624;SDS011;7912;51.376;6.126;2023-02-08T09:14:03;12.97;;;10.13;;
15624;SDS011;7912;51.376;6.126;2023-02-08T09:16:33;12.40;;;9.37;;
15624;SDS011;7912;51.376;6.126;2023-02-08T09:19:00;12.83;;;9.67;;
15624;SDS011;7912;51.376;6.126;2023-02-08T09:21:34;14.93;;;9.83;;
15624;SDS011;7912;51.376;6.126;2023-02-08T09:24:02;12.77;;;9.83;;
15624;SDS011;7912;51.376;6.126;2023-02-08T09:26:30;15.40;;;10.97;;
15624;SDS011;7912;51.376;6.126;2023-02-08T09:28:57;13.73;;;9.50;;
15624;SDS011;7912;51.376;6.126;2023-02-08T09:31:27;13.13;;;10.40;;
15624;SDS011;7912;51.376;6.126;2023-02-08T09:33:58;13.67;;;9.73;;
15624;SDS011;7912;51.376;6.126;2023-02-08T09:36:37;12.00;;;9.47;;
15624;SDS011;7912;51.376;6.126;2023-02-08T09:39:08;12.83;;;9.33;;
15624;SDS011;7912;51.376;6.126;2023-02-08T09:48:02;10.77;;;9.00;;
15624;SDS011;7912;51.376;6.126;2023-02-08T09:50:55;11.93;;;9.17;;
15624;SDS011;7912;51.376;6.126;2023-02-08T09:53:36;10.87;;;9.50;;
15624;SDS011;7912;51.376;6.126;2023-02-08T09:56:20;10.70;;;8.53;;
15624;SDS011;7912;51.376;6.126;2023-02-08T09:58:55;11.40;;;8.80;;
15624;SDS011;7912;51.376;6.126;2023-02-08T10:01:30;10.53;;;8.53;;
15624;SDS011;7912;51.376;6.126;2023-02-08T10:06:31;11.77;;;9.30;;
15624;SDS011;7912;51.376;6.126;2023-02-08T10:09:00;10.97;;;9.00;;
15624;SDS011;7912;51.376;6.126;2023-02-08T10:15:13;10.53;;;8.53;;
15624;SDS011;7912;51.376;6.126;2023-02-08T10:18:07;11.43;;;8.73;;
15624;SDS011;7912;51.376;6.126;2023-02-08T10:20:49;12.00;;;8.37;;
15624;SDS011;7912;51.376;6.126;2023-02-08T10:32:29;12.87;;;8.47;;
15624;SDS011;7912;51.376;6.126;2023-02-08T10:35:28;12.03;;;8.70;;
15624;SDS011;7912;51.376;6.126;2023-02-08T10:40:59;10.27;;;8.53;;
15624;SDS011;7912;51.376;6.126;2023-02-08T10:43:33;9.97;;;8.00;;
15624;SDS011;7912;51.376;6.126;2023-02-08T10:51:52;9.93;;;8.00;;
15624;SDS011;7912;51.376;6.126;2023-02-08T10:54:20;8.70;;;7.80;;
15624;SDS011;7912;51.376;6.126;2023-02-08T10:56:54;8.97;;;7.53;;
15624;SDS011;7912;51.376;6.126;2023-02-08T10:59:30;9.17;;;7.47;;
15624;SDS011;7912;51.376;6.126;2023-02-08T11:02:13;8.83;;;7.07;;
15624;SDS011;7912;51.376;6.126;2023-02-08T11:05:10;8.80;;;7.17;;
15624;SDS011;7912;51.376;6.126;2023-02-08T11:10:37;9.83;;;6.73;;
15624;SDS011;7912;51.376;6.126;2023-02-08T11:15:42;7.50;;;6.47;;
15624;SDS011;7912;51.376;6.126;2023-02-08T11:18:23;6.53;;;5.93;;
15624;SDS011;7912;51.376;6.126;2023-02-08T11:20:58;8.17;;;6.30;;
15624;SDS011;7912;51.376;6.126;2023-02-08T11:23:48;9.30;;;6.83;;
15624;SDS011;7912;51.376;6.126;2023-02-08T11:26:30;8.33;;;7.17;;
15624;SDS011;7912;51.376;6.126;2023-02-08T11:34:35;7.17;;;6.47;;
15624;SDS011;7912;51.376;6.126;2023-02-08T11:37:14;7.37;;;6.33;;
15624;SDS011;7912;51.376;6.126;2023-02-08T11:39:52;7.27;;;6.50;;
15624;SDS011;7912;51.376;6.126;2023-02-08T11:42:26;7.00;;;6.30;;
15624;SDS011;7912;51.376;6.126;2023-02-08T11:45:02;6.90;;;6.20;;
15624;SDS011;7912;51.376;6.126;2023-02-08T11:47:32;7.27;;;6.50;;
15624;SDS011;7912;51.376;6.126;2023-02-08T11:50:03;7.73;;;5.90;;
15624;SDS011;7912;51.376;6.126;2023-02-08T11:52:39;7.17;;;6.40;;
15624;SDS011;7912;51.376;6.126;2023-02-08T12:00:31;7.60;;;6.17;;
15624;SDS011;7912;51.376;6.126;2023-02-08T12:03:06;7.97;;;6.43;;
15624;SDS011;7912;51.376;6.126;2023-02-08T12:12:02;6.77;;;6.07;;
15624;SDS011;7912;51.376;6.126;2023-02-08T12:14:59;7.13;;;6.33;;
15624;SDS011;7912;51.376;6.126;2023-02-08T12:18:02;7.33;;;6.23;;
15624;SDS011;7912;51.376;6.126;2023-02-08T12:29:44;6.43;;;5.60;;
15624;SDS011;7912;51.376;6.126;2023-02-08T12:45:39;5.23;;;4.73;;
15624;SDS011;7912;51.376;6.126;2023-02-08T12:51:36;5.50;;;4.90;;
15624;SDS011;7912;51.376;6.126;2023-02-08T12:54:41;5.47;;;4.60;;
15624;SDS011;7912;51.376;6.126;2023-02-08T12:57:21;5.40;;;4.67;;
15624;SDS011;7912;51.376;6.126;2023-02-08T13:03:00;6.20;;;5.17;;
15624;SDS011;7912;51.376;6.126;2023-02-08T13:05:43;5.07;;;4.57;;
15624;SDS011;7912;51.376;6.126;2023-02-08T13:08:42;6.33;;;4.30;;
15624;SDS011;7912;51.376;6.126;2023-02-08T13:11:43;5.13;;;4.30;;
15624;SDS011;7912;51.376;6.126;2023-02-08T13:14:27;4.90;;;4.40;;
15624;SDS011;7912;51.376;6.126;2023-02-08T13:17:25;5.17;;;4.60;;
15624;SDS011;7912;51.376;6.126;2023-02-08T13:20:02;4.40;;;4.00;;
15624;SDS011;7912;51.376;6.126;2023-02-08T13:23:14;4.87;;;3.60;;
15624;SDS011;7912;51.376;6.126;2023-02-08T13:26:41;5.13;;;3.63;;
15624;SDS011;7912;51.376;6.126;2023-02-08T13:28:57;4.60;;;3.60;;
15624;SDS011;7912;51.376;6.126;2023-02-08T13:31:31;4.10;;;3.70;;
15624;SDS011;7912;51.376;6.126;2023-02-08T13:34:12;4.03;;;3.63;;
15624;SDS011;7912;51.376;6.126;2023-02-08T13:36:56;4.10;;;3.70;;
15624;SDS011;7912;51.376;6.126;2023-02-08T13:39:45;4.03;;;3.53;;
15624;SDS011;7912;51.376;6.126;2023-02-08T13:42:22;3.77;;;3.47;;
15624;SDS011;7912;51.376;6.126;2023-02-08T13:45:02;4.13;;;3.63;;
15624;SDS011;7912;51.376;6.126;2023-02-08T13:47:41;4.73;;;4.03;;
15624;SDS011;7912;51.376;6.126;2023-02-08T13:50:49;5.00;;;3.83;;
15624;SDS011;7912;51.376;6.126;2023-02-08T13:53:11;5.13;;;3.90;;
15624;SDS011;7912;51.376;6.126;2023-02-08T13:55:42;4.50;;;3.80;;
15624;SDS011;7912;51.376;6.126;2023-02-08T13:58:33;4.20;;;3.80;;
15624;SDS011;7912;51.376;6.126;2023-02-08T14:01:27;6.10;;;3.70;;
15624;SDS011;7912;51.376;6.126;2023-02-08T14:07:18;4.23;;;3.83;;
15624;SDS011;7912;51.376;6.126;2023-02-08T14:12:41;4.40;;;3.70;;
15624;SDS011;7912;51.376;6.126;2023-02-08T14:16:20;4.83;;;3.90;;
15624;SDS011;7912;51.376;6.126;2023-02-08T14:19:01;4.30;;;3.80;;
15624;SDS011;7912;51.376;6.126;2023-02-08T14:21:52;4.43;;;4.03;;
15624;SDS011;7912;51.376;6.126;2023-02-08T14:24:38;4.53;;;4.13;;
15624;SDS011;7912;51.376;6.126;2023-02-08T14:27:26;5.13;;;4.00;;
15624;SDS011;7912;51.376;6.126;2023-02-08T14:32:44;4.60;;;4.00;;
15624;SDS011;7912;51.376;6.126;2023-02-08T14:35:20;4.00;;;3.67;;
15624;SDS011;7912;51.376;6.126;2023-02-08T14:38:30;4.77;;;3.80;;
15624;SDS011;7912;51.376;6.126;2023-02-08T14:40:48;4.50;;;4.10;;
15624;SDS011;7912;51.376;6.126;2023-02-08T14:49:07;5.03;;;3.83;;
15624;SDS011;7912;51.376;6.126;2023-02-08T14:51:44;4.73;;;4.20;;
15624;SDS011;7912;51.376;6.126;2023-02-08T14:57:30;4.93;;;4.17;;
15624;SDS011;7912;51.376;6.126;2023-02-08T15:00:04;4.20;;;3.80;;
15624;SDS011;7912;51.376;6.126;2023-02-08T15:02:46;4.20;;;3.80;;
15624;SDS011;7912;51.376;6.126;2023-02-08T15:05:25;4.50;;;3.83;;
15624;SDS011;7912;51.376;6.126;2023-02-08T15:07:56;6.27;;;4.63;;
15624;SDS011;7912;51.376;6.126;2023-02-08T15:10:26;4.47;;;3.93;;
15624;SDS011;7912;51.376;6.126;2023-02-08T15:12:57;4.20;;;3.80;;
15624;SDS011;7912;51.376;6.126;2023-02-08T15:15:33;5.10;;;3.87;;
15624;SDS011;7912;51.376;6.126;2023-02-08T15:18:05;4.67;;;4.20;;
15624;SDS011;7912;51.376;6.126;2023-02-08T15:20:45;6.03;;;4.57;;
15624;SDS011;7912;51.376;6.126;2023-02-08T15:23:30;4.60;;;4.00;;
15624;SDS011;7912;51.376;6.126;2023-02-08T15:26:02;4.83;;;4.40;;
15624;SDS011;7912;51.376;6.126;2023-02-08T15:28:44;5.37;;;4.10;;
15624;SDS011;7912;51.376;6.126;2023-02-08T15:31:19;6.13;;;3.50;;
15624;SDS011;7912;51.376;6.126;2023-02-08T15:33:53;6.37;;;3.57;;
15624;SDS011;7912;51.376;6.126;2023-02-08T15:36:24;5.03;;;4.07;;
15624;SDS011;7912;51.376;6.126;2023-02-08T15:39:09;5.50;;;3.70;;
15624;SDS011;7912;51.376;6.126;2023-02-08T15:41:50;4.53;;;3.30;;
15624;SDS011;7912;51.376;6.126;2023-02-08T15:44:35;4.10;;;3.70;;
15624;SDS011;7912;51.376;6.126;2023-02-08T15:47:13;5.07;;;3.80;;
15624;SDS011;7912;51.376;6.126;2023-02-08T15:49:55;4.53;;;3.63;;
15624;SDS011;7912;51.376;6.126;2023-02-08T15:52:25;4.80;;;3.60;;
15624;SDS011;7912;51.376;6.126;2023-02-08T15:54:56;3.77;;;3.30;;
15624;SDS011;7912;51.376;6.126;2023-02-08T15:57:33;3.73;;;3.30;;
15624;SDS011;7912;51.376;6.126;2023-02-08T16:00:17;6.97;;;3.73;;
15624;SDS011;7912;51.376;6.126;2023-02-08T16:02:54;5.10;;;3.93;;
15624;SDS011;7912;51.376;6.126;2023-02-08T16:05:28;4.60;;;3.80;;
15624;SDS011;7912;51.376;6.126;2023-02-08T16:07:57;5.43;;;4.03;;
15624;SDS011;7912;51.376;6.126;2023-02-08T16:13:13;4.93;;;3.67;;
15624;SDS011;7912;51.376;6.126;2023-02-08T16:16:14;4.47;;;3.70;;
15624;SDS011;7912;51.376;6.126;2023-02-08T16:19:01;5.50;;;3.87;;
15624;SDS011;7912;51.376;6.126;2023-02-08T16:28:02;4.60;;;3.80;;
15624;SDS011;7912;51.376;6.126;2023-02-08T16:30:31;5.47;;;3.43;;
15624;SDS011;7912;51.376;6.126;2023-02-08T16:33:04;5.27;;;4.27;;
15624;SDS011;7912;51.376;6.126;2023-02-08T16:35:33;7.90;;;4.27;;
15624;SDS011;7912;51.376;6.126;2023-02-08T16:38:05;4.90;;;3.97;;
15624;SDS011;7912;51.376;6.126;2023-02-08T16:40:50;5.57;;;4.40;;
15624;SDS011;7912;51.376;6.126;2023-02-08T16:46:17;5.53;;;4.10;;
15624;SDS011;7912;51.376;6.126;2023-02-08T16:48:48;3.90;;;3.53;;
15624;SDS011;7912;51.376;6.126;2023-02-08T16:51:26;4.50;;;4.00;;
15624;SDS011;7912;51.376;6.126;2023-02-08T16:54:02;7.57;;;5.73;;
15624;SDS011;7912;51.376;6.126;2023-02-08T16:56:33;6.40;;;4.60;;
15624;SDS011;7912;51.376;6.126;2023-02-08T16:59:02;7.77;;;6.43;;
15624;SDS011;7912;51.376;6.126;2023-02-08T17:01:31;8.87;;;7.50;;
15624;SDS011;7912;51.376;6.126;2023-02-08T17:03:59;8.20;;;7.10;;
15624;SDS011;7912;51.376;6.126;2023-02-08T17:08:57;7.03;;;5.60;;
15624;SDS011;7912;51.376;6.126;2023-02-08T17:11:27;7.43;;;5.70;;
15624;SDS011;7912;51.376;6.126;2023-02-08T17:13:56;7.13;;;5.43;;
15624;SDS011;7912;51.376;6.126;2023-02-08T17:16:33;5.83;;;5.10;;
15624;SDS011;7912;51.376;6.126;2023-02-08T17:19:03;6.10;;;4.97;;
15624;SDS011;7912;51.376;6.126;2023-02-08T17:21:30;6.17;;;4.97;;
15624;SDS011;7912;51.376;6.126;2023-02-08T17:23:58;6.90;;;5.80;;
15624;SDS011;7912;51.376;6.126;2023-02-08T17:26:34;6.93;;;5.67;;
15624;SDS011;7912;51.376;6.126;2023-02-08T17:29:09;7.03;;;5.53;;
15624;SDS011;7912;51.376;6.126;2023-02-08T17:31:38;7.57;;;5.87;;
15624;SDS011;7912;51.376;6.126;2023-02-08T17:34:06;9.00;;;6.33;;
15624;SDS011;7912;51.376;6.126;2023-02-08T17:36:38;8.07;;;6.40;;
15624;SDS011;7912;51.376;6.126;2023-02-08T17:39:08;9.10;;;6.90;;
15624;SDS011;7912;51.376;6.126;2023-02-08T17:41:37;9.97;;;6.93;;
15624;SDS011;7912;51.376;6.126;2023-02-08T17:44:08;7.40;;;6.37;;
15624;SDS011;7912;51.376;6.126;2023-02-08T17:46:38;7.73;;;6.30;;
15624;SDS011;7912;51.376;6.126;2023-02-08T17:49:05;8.13;;;6.33;;
15624;SDS011;7912;51.376;6.126;2023-02-08T17:51:32;9.47;;;6.60;;
15624;SDS011;7912;51.376;6.126;2023-02-08T17:54:03;9.53;;;6.67;;
15624;SDS011;7912;51.376;6.126;2023-02-08T17:56:36;7.70;;;6.40;;
15624;SDS011;7912;51.376;6.126;2023-02-08T17:59:03;10.53;;;7.77;;
15624;SDS011;7912;51.376;6.126;2023-02-08T18:01:33;8.57;;;7.53;;
15624;SDS011;7912;51.376;6.126;2023-02-08T18:04:01;20.50;;;18.33;;
15624;SDS011;7912;51.376;6.126;2023-02-08T18:06:28;15.33;;;12.73;;
15624;SDS011;7912;51.376;6.126;2023-02-08T18:08:56;11.97;;;9.60;;
15624;SDS011;7912;51.376;6.126;2023-02-08T18:11:23;8.33;;;7.10;;